createdAt,value
2018-06-03T00:02:04.431Z,93.52
2018-06-03T00:04:31.697Z,93.77
2018-06-03T00:06:58.950Z,93.35
2018-06-03T00:09:26.247Z,93.37
2018-06-03T00:11:53.501Z,93.75
2018-06-03T00:14:20.772Z,93.61
2018-06-03T00:16:48.049Z,93.97
2018-06-03T00:19:15.335Z,93.89
2018-06-03T00:21:43.692Z,93.92
2018-06-03T00:24:11.117Z,94.21
2018-06-03T00:26:38.398Z,94.11
2018-06-03T00:29:05.633Z,94.46
2018-06-03T00:31:32.909Z,94.55
2018-06-03T00:34:00.247Z,95.02
2018-06-03T00:36:39.029Z,95.11
2018-06-03T00:39:07.541Z,95.15
2018-06-03T00:41:34.848Z,95.47
2018-06-03T00:44:02.143Z,95.32
2018-06-03T00:46:29.421Z,95.56
2018-06-03T00:48:56.696Z,95.83
2018-06-03T00:51:23.997Z,95.99
2018-06-03T00:53:51.256Z,95.96
2018-06-03T00:56:29.970Z,96.28
2018-06-03T00:58:57.240Z,96.07
2018-06-03T01:01:24.530Z,96.37
2018-06-03T01:03:51.794Z,95.86
2018-06-03T01:06:19.048Z,96.13
2018-06-03T01:08:46.302Z,96.00
2018-06-03T01:11:13.570Z,96.00
2018-06-03T01:13:40.873Z,95.74
2018-06-03T01:16:08.156Z,95.68
2018-06-03T01:18:35.408Z,95.57
2018-06-03T01:21:02.660Z,95.76
2018-06-03T01:23:29.922Z,95.65
2018-06-03T01:25:57.192Z,95.95
2018-06-03T01:28:24.458Z,96.19
2018-06-03T01:30:51.705Z,96.06
2018-06-03T01:33:18.951Z,95.91
2018-06-03T01:35:46.261Z,95.96
2018-06-03T01:38:13.504Z,96.36
2018-06-03T01:40:40.742Z,95.98
2018-06-03T01:43:07.993Z,96.31
2018-06-03T01:45:35.259Z,96.32
2018-06-03T01:48:02.506Z,96.40
2018-06-03T01:50:29.786Z,95.97
2018-06-03T01:52:57.041Z,96.28
2018-06-03T01:55:24.285Z,96.31
2018-06-03T01:57:52.408Z,96.03
2018-06-03T02:00:19.694Z,95.76
2018-06-03T02:02:46.972Z,95.58
2018-06-03T02:05:14.248Z,95.88
2018-06-03T02:07:41.521Z,95.89
2018-06-03T02:10:08.770Z,96.20
2018-06-03T02:12:36.034Z,96.21
2018-06-03T02:15:03.361Z,96.47
2018-06-03T02:17:30.636Z,96.60
2018-06-03T02:19:57.889Z,96.60
2018-06-03T02:22:25.165Z,96.61
2018-06-03T02:24:52.402Z,96.66
2018-06-03T02:27:19.672Z,96.65
2018-06-03T02:29:46.916Z,96.64
2018-06-03T02:32:14.192Z,96.98
2018-06-03T02:34:41.430Z,96.58
2018-06-03T02:37:08.712Z,96.48
2018-06-03T02:39:35.943Z,96.90
2018-06-03T02:42:03.272Z,96.78
2018-06-03T02:44:30.549Z,96.39
2018-06-03T02:46:57.902Z,96.60
2018-06-03T02:49:25.289Z,96.77
2018-06-03T02:51:52.545Z,96.63
2018-06-03T02:54:19.840Z,96.41
2018-06-03T02:56:47.139Z,96.42
2018-06-03T02:59:14.367Z,96.37
2018-06-03T03:01:41.626Z,96.56
2018-06-03T03:04:08.904Z,96.48
2018-06-03T03:06:36.175Z,96.38
2018-06-03T03:09:04.464Z,96.30
2018-06-03T03:11:31.727Z,96.42
2018-06-03T03:13:58.977Z,96.25
2018-06-03T03:16:26.236Z,96.25
2018-06-03T03:18:53.495Z,96.53
2018-06-03T03:21:20.735Z,96.64
2018-06-03T03:23:47.979Z,96.25
2018-06-03T03:26:15.247Z,96.40
2018-06-03T03:28:42.487Z,96.28
2018-06-03T03:31:09.783Z,96.70
2018-06-03T03:33:37.032Z,96.74
2018-06-03T03:36:04.286Z,96.67
2018-06-03T03:38:31.546Z,96.46
2018-06-03T03:40:58.920Z,96.60
2018-06-03T03:43:27.399Z,96.70
2018-06-03T03:45:55.320Z,96.66
2018-06-03T03:48:22.678Z,97.02
2018-06-03T03:50:49.938Z,96.78
2018-06-03T03:53:17.196Z,97.25
2018-06-03T03:55:44.569Z,97.16
2018-06-03T03:58:12.307Z,97.16
2018-06-03T04:00:39.576Z,97.50
2018-06-03T04:03:06.878Z,97.34
2018-06-03T04:05:34.249Z,97.49
2018-06-03T04:08:01.469Z,97.71
2018-06-03T04:10:28.700Z,97.71
2018-06-03T04:12:55.974Z,97.86
2018-06-03T04:15:23.224Z,97.63
2018-06-03T04:17:50.493Z,97.47
2018-06-03T04:20:17.722Z,97.73
2018-06-03T04:22:45.028Z,97.25
2018-06-03T04:25:12.287Z,97.24
2018-06-03T04:27:39.552Z,97.50
2018-06-03T04:30:06.942Z,96.99
2018-06-03T04:32:34.292Z,97.24
2018-06-03T04:35:01.667Z,97.39
2018-06-03T04:37:28.900Z,97.13
2018-06-03T04:39:56.163Z,96.99
2018-06-03T04:42:23.415Z,96.61
2018-06-03T04:44:50.695Z,96.53
2018-06-03T04:47:17.928Z,96.62
2018-06-03T04:49:45.213Z,96.20
2018-06-03T04:52:12.532Z,96.03
2018-06-03T04:54:39.807Z,95.87
2018-06-03T04:57:07.099Z,95.76
2018-06-03T04:59:34.383Z,95.92
2018-06-03T05:02:01.641Z,95.77
2018-06-03T05:04:28.896Z,96.06
2018-06-03T05:06:56.181Z,95.88
2018-06-03T05:09:23.457Z,96.08
2018-06-03T05:11:50.701Z,95.72
2018-06-03T05:14:17.959Z,95.59
2018-06-03T05:16:45.208Z,95.09
2018-06-03T05:19:12.472Z,95.30
2018-06-03T05:21:39.781Z,95.57
2018-06-03T05:24:07.008Z,95.02
2018-06-03T05:26:34.264Z,95.03
2018-06-03T05:29:01.546Z,95.13
2018-06-03T05:31:28.819Z,94.63
2018-06-03T05:33:56.075Z,94.79
2018-06-03T05:36:23.296Z,94.47
2018-06-03T05:38:50.544Z,94.27
2018-06-03T05:41:17.760Z,94.27
2018-06-03T05:43:45.006Z,94.35
2018-06-03T05:46:12.240Z,94.45
2018-06-03T05:48:39.508Z,94.37
2018-06-03T05:51:06.721Z,93.83
2018-06-03T05:53:33.996Z,94.01
2018-06-03T05:56:01.250Z,93.81
2018-06-03T05:58:28.492Z,93.65
2018-06-03T06:00:55.752Z,93.20
2018-06-03T06:03:23.011Z,92.65
2018-06-03T06:05:50.272Z,92.97
2018-06-03T06:08:17.547Z,92.59
2018-06-03T06:10:44.879Z,92.50
2018-06-03T06:13:12.172Z,92.12
2018-06-03T06:15:39.421Z,92.50
2018-06-03T06:18:06.683Z,91.90
2018-06-03T06:20:34.161Z,91.88
2018-06-03T06:23:01.564Z,91.11
2018-06-03T06:25:28.847Z,90.86
2018-06-03T06:27:56.186Z,90.20
2018-06-03T06:30:23.510Z,89.84
2018-06-03T06:32:50.930Z,89.67
2018-06-03T06:35:18.215Z,89.48
2018-06-03T06:37:45.453Z,89.78
2018-06-03T06:40:12.700Z,89.76
2018-06-03T06:42:39.978Z,89.59
2018-06-03T06:45:07.319Z,90.02
2018-06-03T06:47:34.689Z,89.94
2018-06-03T06:50:02.093Z,89.47
2018-06-03T06:52:29.546Z,88.33
2018-06-03T06:54:57.425Z,88.21
2018-06-03T06:57:24.794Z,86.98
2018-06-03T06:59:52.622Z,85.77
2018-06-03T07:02:20.549Z,86.42
2018-06-03T07:04:47.796Z,86.05
2018-06-03T07:07:15.063Z,86.01
2018-06-03T07:09:42.332Z,85.91
2018-06-03T07:12:09.611Z,86.17
2018-06-03T07:14:36.900Z,86.17
2018-06-03T07:17:04.183Z,85.90
2018-06-03T07:19:31.420Z,86.04
2018-06-03T07:21:58.699Z,86.50
2018-06-03T07:24:26.005Z,85.93
2018-06-03T07:26:53.240Z,85.94
2018-06-03T07:29:20.491Z,86.19
2018-06-03T07:31:47.762Z,85.19
2018-06-03T07:34:15.011Z,85.02
2018-06-03T07:36:42.261Z,83.92
2018-06-03T07:39:09.539Z,83.56
2018-06-03T07:41:36.806Z,83.21
2018-06-03T07:44:04.055Z,83.35
2018-06-03T07:46:31.298Z,82.87
2018-06-03T07:48:58.856Z,82.39
2018-06-03T07:51:26.101Z,82.67
2018-06-03T07:53:53.365Z,81.86
2018-06-03T07:56:20.663Z,81.76
2018-06-03T07:58:47.977Z,80.86
2018-06-03T08:01:15.235Z,81.03
2018-06-03T08:03:42.509Z,79.93
2018-06-03T08:06:09.799Z,80.07
2018-06-03T08:08:37.891Z,79.38
2018-06-03T08:11:05.169Z,79.26
2018-06-03T08:13:32.425Z,79.39
2018-06-03T08:15:59.682Z,79.42
2018-06-03T08:18:26.935Z,79.08
2018-06-03T08:20:54.185Z,79.30
2018-06-03T08:23:21.601Z,79.73
2018-06-03T08:25:48.885Z,79.68
2018-06-03T08:28:16.145Z,79.76
2018-06-03T08:30:43.465Z,80.14
2018-06-03T08:33:10.685Z,79.87
2018-06-03T08:35:37.956Z,79.87
2018-06-03T08:38:05.198Z,79.92
2018-06-03T08:40:32.476Z,79.83
2018-06-03T08:42:59.742Z,79.02
2018-06-03T08:45:27.016Z,78.25
2018-06-03T08:47:54.287Z,77.88
2018-06-03T08:50:21.530Z,77.67
2018-06-03T08:52:48.896Z,75.24
2018-06-03T08:55:16.144Z,74.99
2018-06-03T08:57:43.409Z,74.34
2018-06-03T09:00:10.674Z,74.50
2018-06-03T09:02:37.980Z,74.20
2018-06-03T09:05:05.310Z,74.40
2018-06-03T09:07:32.589Z,73.99
2018-06-03T09:09:59.835Z,73.07
2018-06-03T09:12:27.116Z,73.94
2018-06-03T09:14:54.395Z,72.91
2018-06-03T09:17:21.697Z,73.47
2018-06-03T09:19:48.991Z,72.69
2018-06-03T09:22:16.298Z,72.42
2018-06-03T09:24:43.555Z,70.74
2018-06-03T09:27:10.844Z,70.70
2018-06-03T09:29:38.122Z,71.26
2018-06-03T09:32:05.382Z,70.53
2018-06-03T09:34:32.706Z,70.24
2018-06-03T09:37:00.428Z,71.56
2018-06-03T09:39:27.677Z,71.72
2018-06-03T09:41:54.975Z,71.68
2018-06-03T09:44:22.291Z,70.16
2018-06-03T09:46:49.542Z,69.46
2018-06-03T09:49:16.802Z,69.42
2018-06-03T09:51:44.061Z,68.65
2018-06-03T09:54:11.315Z,68.20
2018-06-03T09:56:38.582Z,69.10
2018-06-03T09:59:05.846Z,69.43
2018-06-03T10:01:33.153Z,68.92
2018-06-03T10:04:00.423Z,68.82
2018-06-03T10:06:27.698Z,69.42
2018-06-03T10:08:54.990Z,69.73
2018-06-03T10:11:22.256Z,69.97
2018-06-03T10:13:49.534Z,70.55
2018-06-03T10:16:16.875Z,69.35
2018-06-03T10:18:44.151Z,67.28
2018-06-03T10:21:11.452Z,65.41
2018-06-03T10:23:38.773Z,63.50
2018-06-03T10:26:06.051Z,62.05
2018-06-03T10:28:33.336Z,63.38
2018-06-03T10:31:00.648Z,63.46
2018-06-03T10:33:27.957Z,63.65
2018-06-03T10:35:55.265Z,63.24
2018-06-03T10:38:22.551Z,62.74
2018-06-03T10:40:49.841Z,62.99
2018-06-03T10:43:17.138Z,63.38
2018-06-03T10:45:44.403Z,63.04
2018-06-03T10:48:11.701Z,61.36
2018-06-03T10:50:38.990Z,61.47
2018-06-03T10:53:06.319Z,60.76
2018-06-03T10:55:33.595Z,60.82
2018-06-03T10:58:00.875Z,59.14
2018-06-03T11:00:28.199Z,59.15
2018-06-03T11:02:55.530Z,59.95
2018-06-03T11:05:22.827Z,60.87
2018-06-03T11:07:50.194Z,60.97
2018-06-03T11:10:18.043Z,61.06
2018-06-03T11:12:45.308Z,60.99
2018-06-03T11:15:12.609Z,61.23
2018-06-03T11:17:39.902Z,60.38
2018-06-03T11:20:07.135Z,60.15
2018-06-03T11:22:34.398Z,59.87
2018-06-03T11:25:01.694Z,61.11
2018-06-03T11:27:29.109Z,59.90
2018-06-03T11:29:56.420Z,58.14
2018-06-03T11:32:23.737Z,58.22
2018-06-03T11:34:51.087Z,58.37
2018-06-03T11:37:18.387Z,58.97
2018-06-03T11:39:45.642Z,59.44
2018-06-03T11:42:12.997Z,56.95
2018-06-03T11:44:40.309Z,55.80
2018-06-03T11:47:07.685Z,55.15
2018-06-03T11:49:35.063Z,55.29
2018-06-03T11:52:02.388Z,57.18
2018-06-03T11:54:29.705Z,56.98
2018-06-03T11:57:02.729Z,53.67
2018-06-03T11:59:38.945Z,53.72
2018-06-03T12:02:06.385Z,51.34
2018-06-03T12:04:34.556Z,51.39
2018-06-03T12:07:01.905Z,50.96
2018-06-03T12:09:29.224Z,49.58
2018-06-03T12:11:57.425Z,50.08
2018-06-03T12:14:24.723Z,50.53
2018-06-03T12:16:52.059Z,48.33
2018-06-03T12:19:19.369Z,47.56
2018-06-03T12:21:46.676Z,47.67
2018-06-03T12:24:13.963Z,46.92
2018-06-03T12:26:41.238Z,46.71
2018-06-03T12:29:08.551Z,45.67
2018-06-03T12:31:35.825Z,47.23
2018-06-03T12:34:03.162Z,48.33
2018-06-03T12:36:30.500Z,49.39
2018-06-03T12:38:57.771Z,51.10
2018-06-03T12:41:25.052Z,50.96
2018-06-03T12:43:52.368Z,49.69
2018-06-03T12:46:19.682Z,49.90
2018-06-03T12:48:46.996Z,47.97
2018-06-03T12:51:14.361Z,49.11
2018-06-03T12:53:41.731Z,47.33
2018-06-03T12:56:08.951Z,47.75
2018-06-03T12:58:36.312Z,50.18
2018-06-03T13:01:03.568Z,48.69
2018-06-03T13:03:30.868Z,47.17
2018-06-03T13:05:58.162Z,47.07
2018-06-03T13:08:25.492Z,46.52
2018-06-03T13:10:52.746Z,45.38
2018-06-03T13:13:20.108Z,45.88
2018-06-03T13:15:47.387Z,42.96
2018-06-03T13:18:14.706Z,43.61
2018-06-03T13:20:41.949Z,44.08
2018-06-03T13:23:09.214Z,44.18
2018-06-03T13:25:36.513Z,46.42
2018-06-03T13:28:03.785Z,47.78
2018-06-03T13:30:31.024Z,46.41
2018-06-03T13:32:58.313Z,45.58
2018-06-03T13:35:25.628Z,44.75
2018-06-03T13:37:53.667Z,43.35
2018-06-03T13:40:20.977Z,44.04
2018-06-03T13:42:48.172Z,43.19
2018-06-03T13:45:15.524Z,43.34
2018-06-03T13:47:42.823Z,43.29
2018-06-03T13:50:10.125Z,43.27
2018-06-03T13:52:37.438Z,44.30
2018-06-03T13:55:04.741Z,44.20
2018-06-03T13:57:32.042Z,43.10
2018-06-03T13:59:59.331Z,44.17
2018-06-03T14:02:26.608Z,44.11
2018-06-03T14:04:53.887Z,43.90
2018-06-03T14:07:21.174Z,43.99
2018-06-03T14:09:48.460Z,43.10
2018-06-03T14:12:15.712Z,44.33
2018-06-03T14:14:43.017Z,44.43
2018-06-03T14:17:10.270Z,44.97
2018-06-03T14:19:37.618Z,44.05
2018-06-03T14:22:04.905Z,43.56
2018-06-03T14:24:32.162Z,43.55
2018-06-03T14:26:59.453Z,43.65
2018-06-03T14:29:26.708Z,43.29
2018-06-03T14:31:54.001Z,43.33
2018-06-03T14:34:21.274Z,43.47
2018-06-03T14:36:48.531Z,43.65
2018-06-03T14:39:15.802Z,43.98
2018-06-03T14:41:43.090Z,43.25
2018-06-03T14:44:11.126Z,44.00
2018-06-03T14:46:38.406Z,44.37
2018-06-03T14:49:05.813Z,44.70
2018-06-03T14:51:33.097Z,42.90
2018-06-03T14:54:00.529Z,42.65
2018-06-03T14:56:28.355Z,43.12
2018-06-03T14:58:55.577Z,43.42
2018-06-03T15:01:22.857Z,43.83
2018-06-03T15:03:50.225Z,43.98
2018-06-03T15:06:17.505Z,44.94
2018-06-03T15:08:44.794Z,46.12
2018-06-03T15:11:12.102Z,46.24
2018-06-03T15:13:39.412Z,47.80
2018-06-03T15:16:06.775Z,49.39
2018-06-03T15:18:34.045Z,48.24
2018-06-03T15:21:01.371Z,46.18
2018-06-03T15:23:28.674Z,44.17
2018-06-03T15:25:55.964Z,43.71
2018-06-03T15:28:23.239Z,42.52
2018-06-03T15:30:50.520Z,42.08
2018-06-03T15:33:17.794Z,41.98
2018-06-03T15:35:45.094Z,43.89
2018-06-03T15:38:12.408Z,46.43
2018-06-03T15:40:39.659Z,47.81
2018-06-03T15:43:06.991Z,47.84
2018-06-03T15:45:34.301Z,49.55
2018-06-03T15:48:01.606Z,47.15
2018-06-03T15:50:28.911Z,43.66
2018-06-03T15:52:56.233Z,45.35
2018-06-03T15:55:23.576Z,48.01
2018-06-03T15:57:50.824Z,48.62
2018-06-03T16:00:20.136Z,49.69
2018-06-03T16:02:47.395Z,49.29
2018-06-03T16:05:14.858Z,46.05
2018-06-03T16:07:42.223Z,44.74
2018-06-03T16:10:09.910Z,47.53
2018-06-03T16:12:37.310Z,48.28
2018-06-03T16:15:04.595Z,47.42
2018-06-03T16:17:31.930Z,48.61
2018-06-03T16:19:59.260Z,48.77
2018-06-03T16:22:26.546Z,48.86
2018-06-03T16:24:53.903Z,47.56
2018-06-03T16:27:21.216Z,48.64
2018-06-03T16:29:48.579Z,50.54
2018-06-03T16:32:16.035Z,50.75
2018-06-03T16:34:43.394Z,52.35
2018-06-03T16:37:10.695Z,52.34
2018-06-03T16:39:38.188Z,52.80
2018-06-03T16:42:05.788Z,53.02
2018-06-03T16:44:33.560Z,52.53
2018-06-03T16:47:00.831Z,52.35
2018-06-03T16:49:29.128Z,52.44
2018-06-03T16:51:56.509Z,53.21
2018-06-03T16:54:23.883Z,53.30
2018-06-03T16:56:51.321Z,53.78
2018-06-03T16:59:18.620Z,54.02
2018-06-03T17:01:46.017Z,54.76
2018-06-03T17:04:14.061Z,54.58
2018-06-03T17:06:42.509Z,55.24
2018-06-03T17:09:09.913Z,54.95
2018-06-03T17:11:37.345Z,54.51
2018-06-03T17:14:05.407Z,54.96
2018-06-03T17:16:32.809Z,55.04
2018-06-03T17:19:00.126Z,55.67
2018-06-03T17:21:27.488Z,55.53
2018-06-03T17:23:55.312Z,55.83
2018-06-03T17:26:22.747Z,55.62
2018-06-03T17:28:51.696Z,56.01
2018-06-03T17:31:19.093Z,56.79
2018-06-03T17:33:46.492Z,57.22
2018-06-03T17:36:14.410Z,57.33
2018-06-03T17:38:41.984Z,57.07
2018-06-03T17:41:09.385Z,57.52
2018-06-03T17:43:37.014Z,57.98
2018-06-03T17:46:04.499Z,58.55
2018-06-03T17:48:32.785Z,59.08
2018-06-03T17:51:00.584Z,59.81
2018-06-03T17:53:28.574Z,60.02
2018-06-03T17:55:55.932Z,60.15
2018-06-03T17:58:24.328Z,60.47
2018-06-03T18:00:51.651Z,60.23
2018-06-03T18:03:19.000Z,60.61
2018-06-03T18:05:47.093Z,61.25
2018-06-03T18:08:14.516Z,61.03
2018-06-03T18:10:43.846Z,62.02
2018-06-03T18:13:11.200Z,61.73
2018-06-03T18:15:38.670Z,62.68
2018-06-03T18:18:06.151Z,62.51
2018-06-03T18:20:33.535Z,63.00
2018-06-03T18:23:00.903Z,62.86
2018-06-03T18:25:28.585Z,63.33
2018-06-03T18:27:55.961Z,62.99
2018-06-03T18:30:23.314Z,63.48
2018-06-03T18:32:50.705Z,64.08
2018-06-03T18:35:18.192Z,64.04
2018-06-03T18:37:45.650Z,64.80
2018-06-03T18:40:14.035Z,65.08
2018-06-03T18:42:43.930Z,64.99
2018-06-03T18:45:11.318Z,65.62
2018-06-03T18:47:38.848Z,65.47
2018-06-03T18:50:07.264Z,66.79
2018-06-03T18:52:34.725Z,66.10
2018-06-03T18:55:02.089Z,66.97
2018-06-03T18:57:29.664Z,66.21
2018-06-03T18:59:57.579Z,66.23
2018-06-03T19:02:25.663Z,67.18
2018-06-03T19:04:53.054Z,67.10
2018-06-03T19:07:20.750Z,67.18
2018-06-03T19:09:48.184Z,67.97
2018-06-03T19:12:15.600Z,68.26
2018-06-03T19:14:43.014Z,67.64
2018-06-03T19:17:10.355Z,68.37
2018-06-03T19:19:40.006Z,68.15
2018-06-03T19:22:07.560Z,68.35
2018-06-03T19:24:35.099Z,68.43
2018-06-03T19:27:03.313Z,69.30
2018-06-03T19:29:30.635Z,69.85
2018-06-03T19:31:58.372Z,69.73
2018-06-03T19:34:26.213Z,70.34
2018-06-03T19:36:53.661Z,70.54
2018-06-03T19:39:21.726Z,70.63
2018-06-03T19:41:49.020Z,70.77
2018-06-03T19:44:16.405Z,70.90
2018-06-03T19:46:44.386Z,71.05
2018-06-03T19:49:12.057Z,71.95
2018-06-03T19:51:39.384Z,72.22
2018-06-03T19:54:07.134Z,72.81
2018-06-03T19:56:34.446Z,73.48
2018-06-03T19:59:03.181Z,74.40
2018-06-03T20:01:31.421Z,74.75
2018-06-03T20:03:58.771Z,75.49
2018-06-03T20:06:26.199Z,75.84
2018-06-03T20:08:53.799Z,76.12
2018-06-03T20:11:23.465Z,76.27
2018-06-03T20:13:50.792Z,76.15
2018-06-03T20:16:18.398Z,76.64
2018-06-03T20:18:46.327Z,77.36
2018-06-03T20:21:14.448Z,77.27
2018-06-03T20:23:41.895Z,77.43
2018-06-03T20:26:09.182Z,77.59
2018-06-03T20:28:36.510Z,78.26
2018-06-03T20:31:03.907Z,78.44
2018-06-03T20:33:31.298Z,78.65
2018-06-03T20:35:58.672Z,78.75
2018-06-03T20:38:27.561Z,79.20
2018-06-03T20:40:56.034Z,79.55
2018-06-03T20:43:23.374Z,79.34
2018-06-03T20:45:50.698Z,79.45
2018-06-03T20:48:18.936Z,79.91
2018-06-03T20:50:46.392Z,79.90
2018-06-03T20:53:13.730Z,80.64
2018-06-03T20:55:41.000Z,80.44
2018-06-03T20:58:08.325Z,81.01
2018-06-03T21:00:35.683Z,80.90
2018-06-03T21:03:03.063Z,80.98
2018-06-03T21:05:30.533Z,81.21
2018-06-03T21:07:57.931Z,81.58
2018-06-03T21:10:25.293Z,81.80
2018-06-03T21:12:52.751Z,81.96
2018-06-03T21:15:20.062Z,82.00
2018-06-03T21:17:47.422Z,81.87
2018-06-03T21:20:14.762Z,82.40
2018-06-03T21:22:42.154Z,82.00
2018-06-03T21:25:09.491Z,82.16
2018-06-03T21:27:36.813Z,82.57
2018-06-03T21:30:04.497Z,82.44
2018-06-03T21:32:31.837Z,82.57
2018-06-03T21:34:59.154Z,82.63
2018-06-03T21:37:26.452Z,82.48
2018-06-03T21:39:53.811Z,82.48
2018-06-03T21:42:21.112Z,82.99
2018-06-03T21:44:48.478Z,83.29
2018-06-03T21:47:15.820Z,83.83
2018-06-03T21:49:43.137Z,83.54
2018-06-03T21:52:10.511Z,84.18
2018-06-03T21:54:37.794Z,84.25
2018-06-03T21:57:05.927Z,84.78
2018-06-03T21:59:33.186Z,84.97
2018-06-03T22:02:00.461Z,84.86
2018-06-03T22:04:27.704Z,85.19
2018-06-03T22:06:54.964Z,85.10
2018-06-03T22:09:22.216Z,85.15
2018-06-03T22:11:49.490Z,85.12
2018-06-03T22:14:16.776Z,84.86
2018-06-03T22:16:44.045Z,85.49
2018-06-03T22:19:11.317Z,85.69
2018-06-03T22:21:38.583Z,85.31
2018-06-03T22:24:05.863Z,85.67
2018-06-03T22:26:33.146Z,85.41
2018-06-03T22:29:00.386Z,85.95
2018-06-03T22:31:27.663Z,85.84
2018-06-03T22:33:54.887Z,86.50
2018-06-03T22:36:22.130Z,86.78
2018-06-03T22:38:49.368Z,86.52
2018-06-03T22:41:16.819Z,86.48
2018-06-03T22:43:44.086Z,86.46
2018-06-03T22:46:11.392Z,86.67
2018-06-03T22:48:39.839Z,86.57
2018-06-03T22:51:07.144Z,86.71
2018-06-03T22:53:34.445Z,86.41
2018-06-03T22:56:01.674Z,86.69
2018-06-03T22:58:28.931Z,86.87
2018-06-03T23:00:56.233Z,86.75
2018-06-03T23:03:23.548Z,87.24
2018-06-03T23:05:50.789Z,87.13
2018-06-03T23:08:18.077Z,87.23
2018-06-03T23:10:45.326Z,87.16
2018-06-03T23:13:13.378Z,87.36
2018-06-03T23:15:40.635Z,86.65
2018-06-03T23:18:07.879Z,86.95
2018-06-03T23:20:35.155Z,87.19
2018-06-03T23:23:02.392Z,87.31
2018-06-03T23:25:29.644Z,87.56
2018-06-03T23:27:56.899Z,87.39
2018-06-03T23:30:24.134Z,87.55
2018-06-03T23:32:51.392Z,87.81
2018-06-03T23:35:18.670Z,87.75
2018-06-03T23:37:45.918Z,88.52
2018-06-03T23:40:13.171Z,88.29
2018-06-03T23:42:40.466Z,88.14
2018-06-03T23:45:08.502Z,88.00
2018-06-03T23:47:35.839Z,87.85
2018-06-03T23:50:03.133Z,88.04
2018-06-03T23:52:30.403Z,88.43
2018-06-03T23:54:57.680Z,89.48
2018-06-03T23:57:24.950Z,88.76
2018-06-03T23:59:52.270Z,88.84
